Time;durP1;ratioP1;P1;durP2;ratioP2;P2;SDS_P1;SDS_P2;PMS_P1;PMS_P2;Temp;Humidity;BMP_temperature;BMP_pressure;BME280_temperature;BME280_humidity;BME280_pressure;Samples;Min_cycle;Max_cycle;Signal;HPM_P1;HPM_P2
2023/08/18 00:02:20;;;;;;;10.07;3.55;;;;;;;24.75;59.84;94705.59;5089814;28;20258;-45
2023/08/18 00:04:47;;;;;;;5.22;3.38;;;;;;;24.78;59.62;94698.09;5089969;28;20177;-44
2023/08/18 00:07:14;;;;;;;3.55;3.08;;;;;;;24.77;59.61;94709.56;5090211;28;20193;-45
2023/08/18 00:09:43;;;;;;;5.88;3.67;;;;;;;24.72;59.84;94716.50;5090054;28;20198;-43
2023/08/18 00:12:10;;;;;;;5.63;3.35;;;;;;;24.67;59.90;94693.63;5090151;28;20234;-43
2023/08/18 00:14:37;;;;;;;4.03;2.95;;;;;;;24.54;59.83;94680.75;5090860;28;20186;-44
2023/08/18 00:17:04;;;;;;;3.15;2.85;;;;;;;24.56;59.76;94689.16;5089882;28;20270;-43
2023/08/18 00:19:31;;;;;;;7.25;3.85;;;;;;;24.60;60.09;94694.75;5089219;28;20229;-44
2023/08/18 00:21:58;;;;;;;4.45;3.58;;;;;;;24.56;60.41;94696.22;5090016;28;20201;-45
2023/08/18 00:24:25;;;;;;;5.13;3.25;;;;;;;24.57;60.22;94685.56;5089403;28;20243;-44
2023/08/18 00:26:53;;;;;;;2.97;2.78;;;;;;;24.52;60.37;94688.84;5089622;28;20185;-44
2023/08/18 00:29:20;;;;;;;7.00;3.30;;;;;;;24.51;60.54;94689.84;5089675;28;20649;-44
2023/08/18 00:31:46;;;;;;;5.15;3.15;;;;;;;24.44;60.72;94683.94;5089229;28;20574;-44
2023/08/18 00:34:13;;;;;;;8.48;3.80;;;;;;;24.42;60.97;94685.94;5089361;28;20189;-44
2023/08/18 00:36:40;;;;;;;3.42;3.03;;;;;;;24.38;61.09;94684.81;5089488;28;20193;-44
2023/08/18 00:39:07;;;;;;;8.00;3.40;;;;;;;24.36;61.11;94679.00;5089379;28;20553;-44
2023/08/18 00:41:33;;;;;;;5.10;3.05;;;;;;;24.33;60.86;94670.78;5088541;28;20193;-45
2023/08/18 00:44:02;;;;;;;9.57;3.13;;;;;;;24.33;60.93;94668.19;5089409;28;20704;-44
2023/08/18 00:46:30;;;;;;;6.90;3.10;;;;;;;24.32;61.04;94670.00;5089307;28;20197;-44
2023/08/18 00:48:59;;;;;;;8.93;3.58;;;;;;;24.18;60.78;94648.50;5089229;28;20661;-45
2023/08/18 00:51:27;;;;;;;8.85;3.40;;;;;;;24.27;60.65;94678.50;5089392;28;20623;-44
2023/08/18 00:53:54;;;;;;;4.35;3.05;;;;;;;24.31;60.48;94691.09;5089393;28;20194;-43
2023/08/18 00:56:21;;;;;;;3.70;2.90;;;;;;;24.26;60.64;94674.28;5089132;28;20190;-44
2023/08/18 00:58:48;;;;;;;4.75;3.40;;;;;;;24.32;60.89;94685.69;5089554;28;20212;-43
2023/08/18 01:01:16;;;;;;;5.53;3.33;;;;;;;24.24;61.04;94678.94;5089015;28;20192;-45
2023/08/18 01:03:44;;;;;;;3.08;2.85;;;;;;;24.23;61.10;94672.13;5088977;28;20254;-44
2023/08/18 01:06:11;;;;;;;5.70;2.92;;;;;;;24.25;60.98;94683.16;5089081;28;20186;-43
2023/08/18 01:08:38;;;;;;;7.15;3.20;;;;;;;24.23;60.96;94677.34;5088917;28;20190;-44
2023/08/18 01:11:12;;;;;;;6.40;3.13;;;;;;;24.21;61.08;94678.59;5089094;28;20603;-42
2023/08/18 01:13:51;;;;;;;6.28;3.30;;;;;;;24.20;60.83;94680.41;5088946;28;20225;-43
2023/08/18 01:16:23;;;;;;;4.35;3.22;;;;;;;24.21;61.26;94682.00;5088512;28;20713;-42
2023/08/18 01:18:51;;;;;;;5.55;3.17;;;;;;;24.19;60.93;94689.28;5089107;28;20229;-43
2023/08/18 01:21:18;;;;;;;8.13;3.15;;;;;;;24.21;61.40;94683.81;5088830;28;20657;-43
2023/08/18 01:23:47;;;;;;;7.28;3.25;;;;;;;24.17;61.97;94683.47;5089427;28;20205;-43
2023/08/18 01:26:13;;;;;;;7.55;3.67;;;;;;;24.17;62.40;94683.47;5089252;28;20189;-44
2023/08/18 01:28:43;;;;;;;5.78;3.80;;;;;;;24.15;62.91;94687.31;5089095;28;20595;-43
2023/08/18 01:31:13;;;;;;;6.35;3.78;;;;;;;24.06;63.35;94694.69;5088806;28;20339;-44
2023/08/18 01:33:45;;;;;;;7.70;3.28;;;;;;;23.85;63.17;94663.81;5089008;28;20535;-45
2023/08/18 01:36:16;;;;;;;4.22;3.33;;;;;;;23.97;63.65;94691.56;5089017;28;20186;-43
2023/08/18 01:38:45;;;;;;;4.65;3.58;;;;;;;23.85;63.74;94688.09;5088864;28;20225;-43
2023/08/18 01:41:18;;;;;;;9.52;4.07;;;;;;;23.95;63.60;94693.59;5088934;28;20515;-45
2023/08/18 01:43:45;;;;;;;8.52;3.80;;;;;;;23.91;64.09;94697.66;5088856;28;20571;-44
2023/08/18 01:46:11;;;;;;;4.60;4.18;;;;;;;23.85;64.24;94695.94;5089173;28;20193;-43
2023/08/18 01:48:38;;;;;;;8.40;3.63;;;;;;;23.81;64.40;94700.00;5088938;28;20622;-45
2023/08/18 01:51:05;;;;;;;5.20;3.95;;;;;;;23.80;64.38;94701.03;5088953;28;20198;-44
2023/08/18 01:53:32;;;;;;;4.07;3.67;;;;;;;23.77;64.56;94697.03;5091796;28;20306;-45
2023/08/18 01:56:00;;;;;;;5.93;3.95;;;;;;;23.75;64.77;94700.91;5092694;28;20251;-45
2023/08/18 01:58:28;;;;;;;12.05;4.13;;;;;;;23.73;64.80;94697.69;5092873;28;20297;-44
2023/08/18 02:00:56;;;;;;;7.72;4.20;;;;;;;23.71;64.88;94697.91;5093059;28;20181;-43
2023/08/18 02:03:23;;;;;;;5.22;4.18;;;;;;;23.72;64.88;94688.28;5092325;28;20197;-44
2023/08/18 02:05:49;;;;;;;6.35;4.20;;;;;;;23.67;64.97;94682.91;5092551;28;20657;-46
2023/08/18 02:08:16;;;;;;;6.05;3.70;;;;;;;23.65;64.65;94677.09;5092530;28;20545;-43
2023/08/18 02:10:43;;;;;;;5.55;3.75;;;;;;;23.64;65.02;94678.09;5092315;28;20182;-44
2023/08/18 02:13:10;;;;;;;4.40;4.00;;;;;;;23.63;65.22;94672.06;5092254;28;20208;-43
2023/08/18 02:15:38;;;;;;;6.95;3.90;;;;;;;23.61;65.11;94678.53;5092180;28;20217;-43
2023/08/18 02:18:05;;;;;;;8.13;4.00;;;;;;;23.60;65.33;94680.34;5092033;28;20194;-44
2023/08/18 02:20:32;;;;;;;6.15;4.40;;;;;;;23.62;64.94;94674.88;5092023;28;20189;-44
2023/08/18 02:22:59;;;;;;;5.22;3.42;;;;;;;23.57;65.07;94664.31;5091957;28;20277;-43
2023/08/18 02:25:26;;;;;;;4.30;3.90;;;;;;;23.56;65.13;94668.72;5092050;28;20190;-45
2023/08/18 02:27:52;;;;;;;5.20;4.75;;;;;;;23.62;65.45;94665.25;5092047;28;20197;-44
2023/08/18 02:30:19;;;;;;;4.82;4.40;;;;;;;23.54;65.69;94668.16;5091736;28;20205;-44
2023/08/18 02:32:47;;;;;;;6.55;4.38;;;;;;;23.45;65.88;94667.66;5091755;28;20282;-45
2023/08/18 02:35:14;;;;;;;7.72;4.43;;;;;;;23.44;66.09;94671.25;5091770;28;20182;-45
2023/08/18 02:37:41;;;;;;;4.18;3.67;;;;;;;23.38;66.12;94664.31;5091750;28;20221;-44
2023/08/18 02:40:09;;;;;;;6.03;4.18;;;;;;;23.41;65.87;94661.28;5091224;28;20222;-45
2023/08/18 02:42:36;;;;;;;4.43;4.00;;;;;;;23.34;66.33;94659.75;5091947;28;20261;-45
2023/08/18 02:45:03;;;;;;;4.95;3.95;;;;;;;23.35;66.28;94666.56;5091294;28;20189;-45
2023/08/18 02:47:30;;;;;;;5.72;3.80;;;;;;;23.34;66.27;94668.38;5091926;28;20614;-43
2023/08/18 02:49:58;;;;;;;13.02;4.07;;;;;;;23.31;66.46;94668.81;5091418;28;20189;-43
2023/08/18 02:52:25;;;;;;;4.47;4.03;;;;;;;23.32;66.21;94669.63;5091635;28;20193;-43
2023/08/18 02:54:52;;;;;;;4.78;4.35;;;;;;;23.32;66.36;94678.25;5091258;28;20186;-42
2023/08/18 02:57:18;;;;;;;6.30;3.63;;;;;;;23.27;66.50;94671.06;5091013;28;20189;-45
2023/08/18 02:59:45;;;;;;;8.73;4.28;;;;;;;23.21;66.19;94658.88;5091207;28;20712;-45
2023/08/18 03:02:12;;;;;;;7.13;3.92;;;;;;;23.31;66.13;94676.63;5090959;28;20186;-45
2023/08/18 03:04:39;;;;;;;4.07;3.72;;;;;;;23.32;66.03;94672.25;5090580;28;20653;-45
2023/08/18 03:07:07;;;;;;;4.15;3.75;;;;;;;23.34;65.90;94672.81;5091633;28;20251;-44
2023/08/18 03:09:35;;;;;;;4.35;3.95;;;;;;;23.26;66.06;94666.84;5091263;28;20194;-46
2023/08/18 03:12:02;;;;;;;4.45;4.05;;;;;;;23.32;66.26;94680.06;5092300;28;20276;-43
2023/08/18 03:14:29;;;;;;;7.28;4.28;;;;;;;23.32;66.71;94688.69;5091145;28;20262;-44
2023/08/18 03:16:55;;;;;;;5.20;3.90;;;;;;;23.26;67.13;94687.72;5092214;28;20197;-44
2023/08/18 03:19:23;;;;;;;10.05;4.43;;;;;;;23.27;67.68;94689.34;5091088;28;20225;-43
2023/08/18 03:21:50;;;;;;;10.75;4.63;;;;;;;23.22;68.16;94691.78;5090710;28;20181;-45
2023/08/18 03:24:18;;;;;;;7.10;4.57;;;;;;;23.16;68.53;94684.81;5090598;28;20194;-43
2023/08/18 03:26:45;;;;;;;5.47;4.45;;;;;;;22.95;68.69;94664.34;5091202;28;20608;-43
2023/08/18 03:29:12;;;;;;;9.65;4.63;;;;;;;23.01;68.81;94692.19;5090487;28;20189;-45
2023/08/18 03:31:38;;;;;;;4.38;3.97;;;;;;;22.94;69.24;94683.63;5090524;28;20644;-45
2023/08/18 03:34:05;;;;;;;10.43;4.53;;;;;;;22.89;69.46;94686.84;5090317;28;20193;-44
2023/08/18 03:36:32;;;;;;;8.18;4.47;;;;;;;22.88;69.75;94689.66;5090359;28;20201;-42
2023/08/18 03:38:59;;;;;;;9.68;4.63;;;;;;;22.84;69.73;94686.69;5090031;28;20228;-44
2023/08/18 03:41:28;;;;;;;4.80;4.25;;;;;;;22.78;70.06;94682.31;5090653;28;20185;-43
2023/08/18 03:43:55;;;;;;;7.82;4.28;;;;;;;22.82;69.94;94687.91;5090626;28;20836;-44
2023/08/18 03:46:25;;;;;;;6.85;4.40;;;;;;;22.78;70.58;94688.34;5090459;28;20194;-44
2023/08/18 03:48:52;;;;;;;9.13;4.72;;;;;;;22.75;70.57;94690.56;5090337;28;20208;-44
2023/08/18 03:51:19;;;;;;;8.75;4.68;;;;;;;22.73;70.50;94690.00;5090232;28;20766;-43
2023/08/18 03:53:45;;;;;;;9.00;4.13;;;;;;;22.74;70.37;94692.38;5089943;28;20227;-44
2023/08/18 03:56:12;;;;;;;8.73;5.05;;;;;;;22.75;70.37;94680.97;5090286;28;20193;-43
2023/08/18 03:58:41;;;;;;;9.55;4.72;;;;;;;22.79;70.52;94686.53;5089904;28;20247;-44
2023/08/18 04:01:09;;;;;;;9.70;4.55;;;;;;;22.54;70.93;94647.44;5090946;28;20223;-44
2023/08/18 04:03:36;;;;;;;7.43;5.03;;;;;;;22.77;70.71;94683.34;5090468;28;20190;-44
2023/08/18 04:06:03;;;;;;;5.03;4.38;;;;;;;22.78;70.80;94685.72;5090497;28;20182;-45
2023/08/18 04:08:32;;;;;;;7.50;4.80;;;;;;;22.84;70.33;94689.31;5090079;28;20201;-43
2023/08/18 04:10:59;;;;;;;6.90;3.90;;;;;;;22.81;71.25;94686.31;5089820;28;20197;-45
2023/08/18 04:13:26;;;;;;;9.23;4.35;;;;;;;22.88;70.70;94703.50;5089917;28;20228;-43
2023/08/18 04:15:54;;;;;;;8.52;4.75;;;;;;;22.95;70.52;94693.84;5088945;28;20189;-44
2023/08/18 04:18:20;;;;;;;11.20;4.68;;;;;;;23.02;69.78;94696.41;5090059;28;20205;-42
2023/08/18 04:20:47;;;;;;;8.52;4.28;;;;;;;23.09;69.97;94704.16;5089690;28;20218;-42
2023/08/18 04:23:14;;;;;;;5.07;4.13;;;;;;;23.07;69.13;94701.78;5089975;28;20200;-45
2023/08/18 04:25:43;;;;;;;10.52;4.53;;;;;;;23.22;69.39;94709.25;5091409;28;20626;-47
2023/08/18 04:28:10;;;;;;;11.05;4.82;;;;;;;23.24;69.91;94712.44;5090517;28;20204;-45
2023/08/18 04:30:38;;;;;;;8.15;5.10;;;;;;;23.31;70.18;94710.56;5089407;28;20225;-43
2023/08/18 04:33:06;;;;;;;8.57;4.53;;;;;;;23.35;70.09;94700.50;5089579;28;20196;-43
2023/08/18 04:35:33;;;;;;;7.90;4.72;;;;;;;23.34;68.94;94704.91;5089691;28;20185;-43
2023/08/18 04:37:59;;;;;;;8.80;4.43;;;;;;;23.51;67.76;94708.53;5089541;28;20251;-44
2023/08/18 04:40:26;;;;;;;5.45;3.80;;;;;;;23.54;67.43;94695.06;5089597;28;20225;-44
2023/08/18 04:42:53;;;;;;;5.57;4.32;;;;;;;23.83;66.40;94710.22;5089894;28;20185;-45
2023/08/18 04:45:20;;;;;;;4.40;4.00;;;;;;;24.00;65.60;94716.44;5089831;28;20190;-44
2023/08/18 04:47:47;;;;;;;5.55;4.10;;;;;;;24.23;65.16;94724.41;5089342;28;20679;-45
2023/08/18 04:50:16;;;;;;;7.03;3.85;;;;;;;24.52;64.39;94714.16;5089573;28;20190;-45
2023/08/18 04:52:42;;;;;;;6.78;4.45;;;;;;;24.84;63.65;94716.53;5089213;28;20742;-44
2023/08/18 04:55:09;;;;;;;6.43;4.28;;;;;;;25.08;63.11;94714.72;5089787;28;20189;-44
2023/08/18 04:57:37;;;;;;;8.52;4.28;;;;;;;25.38;61.75;94719.84;5089560;28;20196;-44
2023/08/18 05:00:06;;;;;;;13.40;5.03;;;;;;;25.64;61.20;94721.19;5089755;28;20217;-43
2023/08/18 05:02:33;;;;;;;11.45;4.50;;;;;;;25.92;60.33;94721.28;5089390;28;20254;-45
2023/08/18 05:05:00;;;;;;;9.27;4.43;;;;;;;26.24;59.45;94721.63;5089437;28;20213;-42
2023/08/18 05:07:28;;;;;;;4.93;4.05;;;;;;;26.44;58.48;94723.84;5089114;28;20181;-44
2023/08/18 05:09:55;;;;;;;6.75;4.40;;;;;;;26.68;57.72;94724.50;5089650;28;20214;-43
2023/08/18 05:12:21;;;;;;;6.85;4.05;;;;;;;26.90;56.79;94729.88;5089101;28;20791;-45
2023/08/18 05:14:48;;;;;;;4.55;3.80;;;;;;;27.06;56.31;94727.47;5089356;28;20734;-44
2023/08/18 05:17:15;;;;;;;6.45;4.78;;;;;;;27.13;56.15;94725.50;5089163;28;20609;-43
2023/08/18 05:19:42;;;;;;;5.22;3.67;;;;;;;27.26;56.05;94725.97;5089110;28;20225;-43
2023/08/18 05:22:09;;;;;;;5.45;4.03;;;;;;;27.52;55.26;94732.38;5089412;28;20579;-43
2023/08/18 05:24:37;;;;;;;11.35;4.32;;;;;;;27.70;54.60;94733.13;5088970;28;20193;-45
2023/08/18 05:27:04;;;;;;;4.95;3.92;;;;;;;27.91;53.85;94734.22;5090067;28;20193;-45
2023/08/18 05:29:31;;;;;;;12.00;4.45;;;;;;;28.08;54.08;94739.41;5093473;28;20193;-43
2023/08/18 05:31:57;;;;;;;5.50;3.83;;;;;;;28.23;53.67;94736.94;5093136;28;20279;-45
2023/08/18 05:34:24;;;;;;;7.43;4.40;;;;;;;28.37;53.26;94724.22;5092907;28;20193;-45
2023/08/18 05:36:52;;;;;;;9.00;4.00;;;;;;;28.64;52.42;94743.44;5092952;28;20225;-45
2023/08/18 05:39:19;;;;;;;13.52;4.13;;;;;;;28.87;51.16;94738.91;5092966;28;20610;-45
2023/08/18 05:41:47;;;;;;;3.80;3.50;;;;;;;29.10;51.17;94738.59;5092125;28;20633;-45
2023/08/18 05:44:14;;;;;;;8.38;4.22;;;;;;;29.26;50.71;94734.22;5093152;28;20572;-49
2023/08/18 05:46:41;;;;;;;5.82;4.05;;;;;;;29.53;49.92;94735.94;5094055;28;20192;-44
2023/08/18 05:49:08;;;;;;;11.60;4.03;;;;;;;29.76;49.76;94742.72;5093449;28;20227;-43
2023/08/18 05:51:35;;;;;;;12.60;3.80;;;;;;;29.75;49.11;94710.28;5093430;28;20201;-43
2023/08/18 05:54:03;;;;;;;7.72;4.05;;;;;;;30.02;48.21;94739.13;5093388;28;20196;-42
2023/08/18 05:56:30;;;;;;;4.05;3.70;;;;;;;30.24;47.72;94733.69;5094141;28;20178;-44
2023/08/18 05:58:58;;;;;;;10.10;4.35;;;;;;;30.44;47.34;94738.22;5092940;28;20185;-45
2023/08/18 06:01:26;;;;;;;8.93;4.10;;;;;;;30.55;46.69;94731.13;5092734;28;20242;-44
2023/08/18 06:03:52;;;;;;;7.75;4.18;;;;;;;30.66;46.39;94738.81;5092727;28;20585;-46
2023/08/18 06:06:19;;;;;;;6.45;3.80;;;;;;;30.66;46.16;94733.53;5092446;28;20710;-47
2023/08/18 06:08:46;;;;;;;4.82;4.00;;;;;;;30.87;46.11;94730.91;5093122;28;20190;-45
2023/08/18 06:11:15;;;;;;;6.55;3.80;;;;;;;31.09;45.38;94730.63;5093022;28;20669;-45
2023/08/18 06:13:41;;;;;;;4.43;3.80;;;;;;;31.18;44.96;94735.13;5092825;28;20637;-44
2023/08/18 06:16:09;;;;;;;7.05;3.80;;;;;;;31.31;44.32;94740.97;5092344;28;20186;-45
2023/08/18 06:18:36;;;;;;;9.25;4.20;;;;;;;31.39;44.33;94732.47;5092259;28;20577;-46
2023/08/18 06:21:03;;;;;;;7.38;3.72;;;;;;;31.52;44.25;94731.94;5092108;28;20217;-45
2023/08/18 06:23:30;;;;;;;6.32;3.65;;;;;;;31.69;43.96;94735.06;5092772;28;20181;-44
2023/08/18 06:25:57;;;;;;;7.68;3.78;;;;;;;31.80;43.70;94727.09;5092347;28;20189;-45
2023/08/18 06:28:25;;;;;;;8.57;3.80;;;;;;;31.87;43.88;94730.28;5092583;28;20185;-44
2023/08/18 06:30:52;;;;;;;9.65;3.95;;;;;;;31.95;43.18;94738.47;5091907;28;20697;-44
2023/08/18 06:33:20;;;;;;;8.75;3.65;;;;;;;31.92;43.02;94735.56;5092104;28;20631;-45
2023/08/18 06:35:48;;;;;;;6.65;3.63;;;;;;;32.06;43.04;94743.69;5092562;28;20534;-46
2023/08/18 06:38:15;;;;;;;4.75;3.97;;;;;;;32.14;42.24;94745.78;5091557;28;20213;-46
2023/08/18 06:40:45;;;;;;;5.38;3.72;;;;;;;32.06;42.54;94744.50;5091989;28;20210;-45
2023/08/18 06:43:11;;;;;;;5.22;3.42;;;;;;;32.15;42.28;94747.34;5092148;28;20186;-45
2023/08/18 06:45:38;;;;;;;5.22;3.78;;;;;;;32.17;42.08;94742.59;5092033;28;20193;-44
2023/08/18 06:48:05;;;;;;;4.78;3.28;;;;;;;32.36;41.79;94748.06;5091340;28;20197;-43
2023/08/18 06:50:34;;;;;;;6.35;3.67;;;;;;;32.40;41.48;94728.72;5091874;28;20189;-44
2023/08/18 06:53:01;;;;;;;6.20;3.08;;;;;;;32.61;41.17;94753.25;5091713;28;20193;-45
2023/08/18 06:55:27;;;;;;;5.05;3.10;;;;;;;32.55;41.44;94751.66;5092055;28;20564;-44
2023/08/18 06:57:54;;;;;;;6.53;3.65;;;;;;;32.58;41.49;94742.41;5091723;28;20181;-44
2023/08/18 07:00:21;;;;;;;6.20;3.33;;;;;;;32.77;41.14;94735.38;5091584;28;20229;-44
2023/08/18 07:02:49;;;;;;;5.20;3.30;;;;;;;33.02;40.63;94746.88;5091270;28;20198;-44
2023/08/18 07:05:17;;;;;;;4.97;3.22;;;;;;;33.09;39.57;94750.78;5091349;28;20673;-44
2023/08/18 07:07:45;;;;;;;6.82;3.15;;;;;;;33.15;39.50;94740.94;5091161;28;20194;-45
2023/08/18 07:10:12;;;;;;;5.55;3.53;;;;;;;33.03;39.81;94741.28;5091628;28;20258;-44
2023/08/18 07:12:39;;;;;;;7.10;3.10;;;;;;;33.05;40.12;94733.09;5091663;28;20194;-43
2023/08/18 07:15:06;;;;;;;5.00;2.95;;;;;;;33.08;39.95;94728.03;5091162;28;20194;-45
2023/08/18 07:17:33;;;;;;;5.22;3.95;;;;;;;33.19;39.81;94731.34;5091207;28;20186;-45
2023/08/18 07:20:00;;;;;;;7.38;3.65;;;;;;;33.26;39.69;94731.84;5091109;28;20597;-45
2023/08/18 07:22:27;;;;;;;8.30;3.10;;;;;;;33.44;39.80;94725.06;5091534;28;20213;-43
2023/08/18 07:24:55;;;;;;;8.65;3.50;;;;;;;33.57;39.03;94731.56;5090799;28;20221;-44
2023/08/18 07:27:21;;;;;;;8.23;3.60;;;;;;;33.59;38.96;94729.41;5091013;28;20575;-44
2023/08/18 07:29:48;;;;;;;3.42;3.00;;;;;;;33.55;39.18;94725.72;5090615;28;20617;-44
2023/08/18 07:32:16;;;;;;;9.27;3.40;;;;;;;33.65;39.54;94730.94;5090824;28;20222;-44
2023/08/18 07:34:42;;;;;;;5.60;3.65;;;;;;;33.82;38.89;94725.19;5090564;28;20189;-44
2023/08/18 07:37:09;;;;;;;3.38;3.08;;;;;;;33.93;38.63;94731.94;5091021;28;20600;-46
2023/08/18 07:39:36;;;;;;;7.13;3.45;;;;;;;33.94;38.66;94736.19;5090531;28;20760;-45
2023/08/18 07:42:04;;;;;;;6.72;3.65;;;;;;;33.80;38.82;94729.97;5090929;28;20177;-43
2023/08/18 07:44:31;;;;;;;5.72;3.65;;;;;;;33.82;38.82;94723.31;5090575;28;20190;-45
2023/08/18 07:46:58;;;;;;;4.80;3.53;;;;;;;33.78;38.82;94735.56;5091109;28;20205;-44
2023/08/18 07:49:25;;;;;;;7.47;3.47;;;;;;;33.73;38.48;94730.34;5091145;28;20223;-43
2023/08/18 07:51:51;;;;;;;6.68;3.17;;;;;;;33.53;38.57;94736.63;5090181;28;20189;-45
2023/08/18 07:54:18;;;;;;;4.13;2.67;;;;;;;33.45;38.35;94739.91;5090556;28;20235;-44
2023/08/18 07:56:45;;;;;;;4.40;3.55;;;;;;;33.18;39.21;94732.44;5090316;28;20193;-44
2023/08/18 07:59:14;;;;;;;5.40;3.33;;;;;;;33.16;39.14;94734.56;5090463;28;20226;-44
2023/08/18 08:01:41;;;;;;;5.43;3.22;;;;;;;32.88;38.98;94741.41;5089870;28;20221;-44
2023/08/18 08:04:08;;;;;;;4.03;2.97;;;;;;;32.75;39.81;94739.38;5090102;28;20661;-45
2023/08/18 08:06:35;;;;;;;4.60;3.15;;;;;;;32.86;39.13;94740.88;5089918;28;20194;-44
2023/08/18 08:09:03;;;;;;;3.72;3.35;;;;;;;32.96;39.30;94735.53;5090250;28;20197;-44
2023/08/18 08:11:30;;;;;;;3.83;3.42;;;;;;;32.97;38.98;94745.84;5090054;28;20303;-45
2023/08/18 08:13:57;;;;;;;10.05;3.90;;;;;;;32.94;39.66;94733.16;5090460;28;20182;-45
2023/08/18 08:16:25;;;;;;;5.13;3.50;;;;;;;33.10;39.74;94731.16;5089689;28;20213;-43
2023/08/18 08:18:51;;;;;;;6.30;3.45;;;;;;;33.18;38.75;94727.91;5090327;28;20194;-43
2023/08/18 08:21:18;;;;;;;4.15;2.97;;;;;;;33.33;38.97;94711.06;5089813;28;20223;-45
2023/08/18 08:23:45;;;;;;;5.10;3.47;;;;;;;33.26;38.77;94720.44;5090179;28;20197;-44
2023/08/18 08:26:12;;;;;;;3.13;2.83;;;;;;;33.11;39.10;94724.00;5090078;28;20189;-48
2023/08/18 08:28:39;;;;;;;4.65;3.22;;;;;;;33.28;38.58;94708.47;5089981;28;20189;-44
2023/08/18 08:31:06;;;;;;;6.22;3.28;;;;;;;33.32;38.61;94719.31;5089776;28;20248;-44
2023/08/18 08:33:34;;;;;;;3.42;3.08;;;;;;;33.37;37.20;94711.31;5089763;28;20194;-45
2023/08/18 08:36:01;;;;;;;3.08;2.83;;;;;;;33.20;37.49;94717.84;5089833;28;20181;-45
2023/08/18 08:38:27;;;;;;;6.07;3.30;;;;;;;33.07;37.18;94731.72;5089838;28;20226;-45
2023/08/18 08:40:55;;;;;;;3.78;2.90;;;;;;;32.88;37.38;94733.44;5089756;28;20217;-45
2023/08/18 08:43:22;;;;;;;3.83;2.65;;;;;;;32.85;37.60;94716.22;5089633;28;20654;-44
2023/08/18 08:45:49;;;;;;;6.18;3.10;;;;;;;32.93;37.55;94725.47;5089710;28;20193;-46
2023/08/18 08:48:19;;;;;;;4.90;2.78;;;;;;;32.90;36.89;94712.75;5089408;28;20543;-45
2023/08/18 08:50:55;;;;;;;3.75;2.50;;;;;;;32.89;36.78;94727.06;5089943;28;20216;-46
2023/08/18 08:53:31;;;;;;;2.72;2.53;;;;;;;32.89;36.95;94708.53;5089701;28;20266;-45
2023/08/18 08:56:02;;;;;;;4.93;2.83;;;;;;;32.97;36.19;94714.06;5089714;28;20669;-46
2023/08/18 08:58:31;;;;;;;4.72;2.50;;;;;;;33.03;35.83;94711.34;5089291;28;20189;-46
2023/08/18 09:01:00;;;;;;;5.20;2.80;;;;;;;32.97;36.08;94708.75;5089595;28;20718;-45
2023/08/18 09:03:28;;;;;;;4.70;2.83;;;;;;;33.01;35.95;94703.69;5095609;28;20257;-45
2023/08/18 09:05:56;;;;;;;3.88;2.75;;;;;;;33.00;36.69;94703.97;5096278;28;20189;-45
2023/08/18 09:08:23;;;;;;;3.03;2.40;;;;;;;32.99;35.92;94712.97;5096021;28;20190;-44
2023/08/18 09:10:50;;;;;;;7.00;2.65;;;;;;;32.99;35.59;94699.72;5096361;28;20196;-46
2023/08/18 09:13:17;;;;;;;4.55;2.50;;;;;;;32.90;35.88;94694.19;5095915;28;20193;-43
2023/08/18 09:15:45;;;;;;;5.20;2.55;;;;;;;33.10;35.60;94694.06;5096732;28;20197;-45
2023/08/18 09:18:12;;;;;;;10.65;2.90;;;;;;;33.05;35.62;94701.28;5096245;28;20300;-45
2023/08/18 09:20:39;;;;;;;4.57;2.92;;;;;;;33.05;35.70;94698.63;5096297;28;20228;-44
2023/08/18 09:23:07;;;;;;;4.68;2.60;;;;;;;33.04;35.69;94697.84;5096084;28;20198;-46
2023/08/18 09:25:35;;;;;;;7.05;3.10;;;;;;;32.97;36.34;94703.44;5096036;28;20182;-44
2023/08/18 09:28:03;;;;;;;4.72;2.67;;;;;;;33.02;35.93;94697.31;5095932;28;20220;-43
2023/08/18 09:30:30;;;;;;;3.97;2.85;;;;;;;33.09;36.04;94694.34;5095826;28;20233;-45
2023/08/18 09:32:58;;;;;;;6.43;2.50;;;;;;;33.06;35.71;94700.19;5096228;28;20200;-44
2023/08/18 09:35:24;;;;;;;9.23;3.08;;;;;;;32.93;36.02;94702.41;5096062;28;20193;-43
2023/08/18 09:37:55;;;;;;;4.93;2.97;;;;;;;32.75;36.31;94703.06;5096142;28;20189;-46
2023/08/18 09:40:24;;;;;;;6.97;2.78;;;;;;;32.75;36.23;94694.34;5095997;28;20217;-44
2023/08/18 09:42:51;;;;;;;3.60;2.72;;;;;;;32.63;36.82;94700.78;5096613;28;20182;-44
2023/08/18 09:45:21;;;;;;;3.20;2.90;;;;;;;32.49;36.63;94704.31;5095886;28;20246;-46
2023/08/18 09:47:52;;;;;;;8.82;2.72;;;;;;;32.38;37.26;94699.06;5096227;28;20648;-45
2023/08/18 09:50:20;;;;;;;2.75;2.47;;;;;;;32.37;37.42;94708.06;5095741;28;20197;-45
2023/08/18 09:52:53;;;;;;;3.33;3.03;;;;;;;32.23;37.48;94697.28;5096176;28;20182;-46
2023/08/18 09:55:24;;;;;;;5.00;2.60;;;;;;;32.28;37.66;94693.81;5096150;28;20196;-44
2023/08/18 09:57:58;;;;;;;6.97;2.60;;;;;;;32.29;37.36;94703.34;5095967;28;20196;-46
2023/08/18 10:00:27;;;;;;;8.70;3.15;;;;;;;32.10;37.72;94689.97;5095741;28;20665;-44
2023/08/18 10:02:55;;;;;;;7.35;2.97;;;;;;;32.06;38.06;94696.84;5096617;28;20196;-44
2023/08/18 10:05:23;;;;;;;5.50;3.00;;;;;;;32.05;37.68;94686.56;5095763;28;20190;-44
2023/08/18 10:07:50;;;;;;;10.90;2.95;;;;;;;31.95;38.20;94690.84;5095911;28;20791;-43
2023/08/18 10:10:19;;;;;;;3.65;2.70;;;;;;;32.04;38.54;94687.59;5095632;28;20197;-46
2023/08/18 10:12:46;;;;;;;9.70;3.08;;;;;;;32.07;38.58;94687.84;5095612;28;20668;-43
2023/08/18 10:15:15;;;;;;;5.38;2.80;;;;;;;32.02;38.26;94685.22;5092772;28;20553;-45
2023/08/18 10:17:43;;;;;;;9.07;2.70;;;;;;;31.79;38.12;94659.41;5092544;28;20619;-46
2023/08/18 10:20:12;;;;;;;4.25;2.40;;;;;;;31.96;37.85;94684.47;5092579;28;20193;-45
2023/08/18 10:22:41;;;;;;;5.15;2.85;;;;;;;31.86;38.24;94689.78;5092925;28;20688;-46
2023/08/18 10:25:09;;;;;;;5.03;2.58;;;;;;;31.67;38.10;94660.50;5092682;28;20815;-44
2023/08/18 10:27:40;;;;;;;6.40;2.83;;;;;;;31.88;38.44;94686.91;5092469;28;20202;-45
2023/08/18 10:30:29;;;;;;;4.57;3.33;;;;;;;31.95;38.42;94690.03;5092111;28;20277;-45
2023/08/18 10:33:06;;;;;;;7.82;2.80;;;;;;;31.91;37.89;94673.91;5092477;28;20189;-45
2023/08/18 10:35:38;;;;;;;5.15;2.90;;;;;;;31.96;37.83;94687.13;5090378;28;20213;-44
2023/08/18 10:38:06;;;;;;;7.57;2.95;;;;;;;31.92;38.01;94701.16;5092175;28;20637;-44
2023/08/18 10:40:34;;;;;;;4.60;2.88;;;;;;;31.82;38.09;94701.94;5091839;28;20194;-45
2023/08/18 10:43:04;;;;;;;6.55;3.17;;;;;;;31.71;38.44;94681.91;5092215;28;20235;-44
2023/08/18 10:45:32;;;;;;;4.78;2.97;;;;;;;31.66;38.89;94681.94;5091729;28;20182;-47
2023/08/18 10:48:02;;;;;;;3.58;2.88;;;;;;;31.67;38.82;94686.94;5092335;28;20185;-44
2023/08/18 10:50:29;;;;;;;8.80;2.72;;;;;;;31.79;39.00;94676.06;5091941;28;20259;-44
2023/08/18 10:52:57;;;;;;;4.68;2.70;;;;;;;31.64;38.71;94657.59;5091696;28;20190;-44
2023/08/18 10:55:24;;;;;;;3.80;2.92;;;;;;;31.80;38.73;94674.19;5091512;28;20190;-43
2023/08/18 10:57:51;;;;;;;5.07;3.05;;;;;;;31.92;38.35;94678.16;5091670;28;20197;-44
2023/08/18 11:00:19;;;;;;;6.82;3.33;;;;;;;31.94;38.95;94683.94;5091510;28;20190;-44
2023/08/18 11:02:49;;;;;;;4.80;3.47;;;;;;;31.90;38.44;94680.25;5091438;28;20214;-45
2023/08/18 11:05:18;;;;;;;6.00;2.85;;;;;;;31.89;38.44;94662.81;5091550;28;20193;-43
2023/08/18 11:07:45;;;;;;;8.95;3.70;;;;;;;32.01;38.94;94681.00;5091613;28;20190;-44
2023/08/18 11:10:16;;;;;;;5.55;2.88;;;;;;;32.02;39.03;94681.81;5091420;28;20638;-44
2023/08/18 11:12:44;;;;;;;9.75;3.28;;;;;;;32.14;38.91;94669.03;5091053;28;20186;-45
2023/08/18 11:15:11;;;;;;;3.67;3.28;;;;;;;32.11;38.85;94675.66;5091328;28;20276;-44
2023/08/18 11:17:39;;;;;;;9.82;3.28;;;;;;;32.06;38.06;94661.66;5091390;28;20186;-44
2023/08/18 11:20:11;;;;;;;6.05;3.00;;;;;;;32.17;38.61;94671.94;5091637;28;20197;-43
2023/08/18 11:22:38;;;;;;;5.97;3.30;;;;;;;32.12;38.11;94671.16;5090932;28;20348;-43
2023/08/18 11:25:06;;;;;;;5.30;3.20;;;;;;;32.03;38.57;94670.16;5090707;28;20189;-45
2023/08/18 11:27:33;;;;;;;9.27;3.28;;;;;;;32.18;38.23;94680.66;5090689;28;20247;-44
2023/08/18 11:30:01;;;;;;;3.45;3.15;;;;;;;32.19;37.89;94674.28;5091024;28;20186;-44
2023/08/18 11:32:28;;;;;;;5.38;2.70;;;;;;;32.26;37.88;94677.44;5092114;28;20257;-44
2023/08/18 11:34:56;;;;;;;3.45;2.88;;;;;;;32.19;37.91;94666.34;5090996;28;20724;-44